Archival Weather

Chicago O'Hare International

Chicago, Illinois (KORD)

Report from: Tuesday, December 13, 2022 5:51 AM CST
Current time: Friday, June 21, 2024 2:27 AM CDT

Current weather – Weather history – Daily summaries
Weather forecast

Temperature2.2°C (36.0°F)
Wind chill-3.2°C (26.3°F)
Dew point-2.8°C (27.0°F)
Winds 14 kts (7.2 m/s, 16.1 mph) East-Southeast (110°)
Wind gusts 18 kts (9.3 m/s, 20.7 mph)
Visibility10 mi. (16.1 km)
Clouds Ceiling: Overcast 2,000 ft. (610 m)
Altimeter30.24 in.Hg (1024 mB)
Relative humidity69 %
Density altitude-1,858 ft. (-566 m)
Sea-level pressure102.4 kPa (1024 mB, 30.25 in.Hg)
Max temp last 6 hours2.8°C (37.0°F)
Min temp last 6 hours1.7°C (35.1°F)
Remarks Automated weather observing station with precipitation discriminator
Pressure falling more slowly
Flight conditions Marginal Visual Meteorological Conditions
Raw dataKORD 131151Z 11014G18KT 10SM OVC020 02/M03 A3024 RMK AO2 SLP244 T00221028 10028 20017 56003
An error has occurred. This application may no longer respond until reloaded. Reload 🗙